Alvin, Texas
Current Conditions -  °F | °C
As of 8:53 AM on Monday 22 Dec 2014 (Local Time) from KLVJ Reporting Station
Overcast Overcast  
Wind Chill: 65°   Ceiling: 900
Heat Index: 65°   Visibility: 9mi
Dew Point: 63°   Wind: 14mph
Humidity: 93%   Direction: 190°S
Pressure: 29.77"   Gusts: 23mph
Location:  29.42°N, 95.24°W
Report Text: KLVJ 221453Z AUTO 19012G20KT 9SM BKN009 OVC037 18/17 A2977 RMK AO2 CIG 006V013 SLP080 T01830172 55000
Loading
Personal Weather Stations






























Interactive Weather Map New forecast layout! Learn more

10-Day Weather Forecast

Advertisements
Track Severe Weather on mobile